sensor_id;sensor_type;location;lat;lon;timestamp;P1;durP1;ratioP1;P2;durP2;ratioP2
20245;SDS011;10281;54.406;18.556;2022-10-31T00:01:09;31.83;;;21.23;;
20245;SDS011;10281;54.406;18.556;2022-10-31T00:03:37;28.73;;;19.40;;
20245;SDS011;10281;54.406;18.556;2022-10-31T00:06:03;30.67;;;19.90;;
20245;SDS011;10281;54.406;18.556;2022-10-31T00:08:30;29.33;;;20.63;;
20245;SDS011;10281;54.406;18.556;2022-10-31T00:10:56;32.20;;;21.17;;
20245;SDS011;10281;54.406;18.556;2022-10-31T00:13:23;30.73;;;22.00;;
20245;SDS011;10281;54.406;18.556;2022-10-31T00:15:50;30.33;;;21.03;;
20245;SDS011;10281;54.406;18.556;2022-10-31T00:18:16;30.90;;;22.27;;
20245;SDS011;10281;54.406;18.556;2022-10-31T00:20:43;32.03;;;24.43;;
20245;SDS011;10281;54.406;18.556;2022-10-31T00:23:10;37.43;;;25.83;;
20245;SDS011;10281;54.406;18.556;2022-10-31T00:25:37;33.27;;;24.33;;
20245;SDS011;10281;54.406;18.556;2022-10-31T00:28:05;35.40;;;26.90;;
20245;SDS011;10281;54.406;18.556;2022-10-31T00:30:33;35.10;;;25.00;;
20245;SDS011;10281;54.406;18.556;2022-10-31T00:33:00;37.80;;;27.60;;
20245;SDS011;10281;54.406;18.556;2022-10-31T00:35:29;38.00;;;25.83;;
20245;SDS011;10281;54.406;18.556;2022-10-31T00:37:56;34.83;;;27.00;;
20245;SDS011;10281;54.406;18.556;2022-10-31T00:40:23;37.23;;;27.40;;
20245;SDS011;10281;54.406;18.556;2022-10-31T00:42:50;38.43;;;27.57;;
20245;SDS011;10281;54.406;18.556;2022-10-31T00:45:17;37.93;;;27.13;;
20245;SDS011;10281;54.406;18.556;2022-10-31T00:47:44;43.40;;;28.53;;
20245;SDS011;10281;54.406;18.556;2022-10-31T00:50:10;35.93;;;27.07;;
20245;SDS011;10281;54.406;18.556;2022-10-31T00:52:37;39.63;;;28.47;;
20245;SDS011;10281;54.406;18.556;2022-10-31T00:55:03;38.03;;;27.90;;
20245;SDS011;10281;54.406;18.556;2022-10-31T00:57:31;39.83;;;27.53;;
20245;SDS011;10281;54.406;18.556;2022-10-31T00:59:58;46.33;;;28.70;;
20245;SDS011;10281;54.406;18.556;2022-10-31T01:02:24;44.70;;;28.67;;
20245;SDS011;10281;54.406;18.556;2022-10-31T01:04:51;40.43;;;27.87;;
20245;SDS011;10281;54.406;18.556;2022-10-31T01:07:17;38.87;;;27.13;;
20245;SDS011;10281;54.406;18.556;2022-10-31T01:09:44;37.43;;;27.90;;
20245;SDS011;10281;54.406;18.556;2022-10-31T01:12:11;39.07;;;27.40;;
20245;SDS011;10281;54.406;18.556;2022-10-31T01:14:37;40.90;;;26.50;;
20245;SDS011;10281;54.406;18.556;2022-10-31T01:17:04;38.77;;;27.27;;
20245;SDS011;10281;54.406;18.556;2022-10-31T01:19:31;41.00;;;27.30;;
20245;SDS011;10281;54.406;18.556;2022-10-31T01:21:58;40.20;;;25.73;;
20245;SDS011;10281;54.406;18.556;2022-10-31T01:24:24;39.73;;;27.93;;
20245;SDS011;10281;54.406;18.556;2022-10-31T01:26:51;42.20;;;28.30;;
20245;SDS011;10281;54.406;18.556;2022-10-31T01:29:17;43.57;;;29.60;;
20245;SDS011;10281;54.406;18.556;2022-10-31T01:31:44;51.30;;;30.47;;
20245;SDS011;10281;54.406;18.556;2022-10-31T01:34:13;51.97;;;30.53;;
20245;SDS011;10281;54.406;18.556;2022-10-31T01:36:42;45.37;;;29.87;;
20245;SDS011;10281;54.406;18.556;2022-10-31T01:39:11;47.90;;;31.47;;
20245;SDS011;10281;54.406;18.556;2022-10-31T01:41:43;45.63;;;30.60;;
20245;SDS011;10281;54.406;18.556;2022-10-31T01:44:48;49.27;;;31.73;;
20245;SDS011;10281;54.406;18.556;2022-10-31T01:47:14;55.37;;;31.30;;
20245;SDS011;10281;54.406;18.556;2022-10-31T01:49:45;48.73;;;29.53;;
20245;SDS011;10281;54.406;18.556;2022-10-31T01:52:14;59.43;;;34.40;;
20245;SDS011;10281;54.406;18.556;2022-10-31T01:54:50;47.33;;;30.27;;
20245;SDS011;10281;54.406;18.556;2022-10-31T01:57:20;45.30;;;27.80;;
20245;SDS011;10281;54.406;18.556;2022-10-31T01:59:48;39.27;;;26.33;;
20245;SDS011;10281;54.406;18.556;2022-10-31T02:02:17;46.20;;;28.80;;
20245;SDS011;10281;54.406;18.556;2022-10-31T02:04:45;49.37;;;31.57;;
20245;SDS011;10281;54.406;18.556;2022-10-31T02:07:14;50.53;;;32.07;;
20245;SDS011;10281;54.406;18.556;2022-10-31T02:09:44;46.30;;;28.70;;
20245;SDS011;10281;54.406;18.556;2022-10-31T02:12:13;43.17;;;27.93;;
20245;SDS011;10281;54.406;18.556;2022-10-31T02:14:42;41.03;;;26.37;;
20245;SDS011;10281;54.406;18.556;2022-10-31T02:17:08;46.03;;;27.70;;
20245;SDS011;10281;54.406;18.556;2022-10-31T02:19:40;39.07;;;26.53;;
20245;SDS011;10281;54.406;18.556;2022-10-31T02:22:14;41.10;;;27.20;;
20245;SDS011;10281;54.406;18.556;2022-10-31T02:25:02;37.27;;;25.57;;
20245;SDS011;10281;54.406;18.556;2022-10-31T02:27:55;43.20;;;26.73;;
20245;SDS011;10281;54.406;18.556;2022-10-31T02:33:30;52.00;;;30.00;;
20245;SDS011;10281;54.406;18.556;2022-10-31T02:36:05;46.13;;;28.47;;
20245;SDS011;10281;54.406;18.556;2022-10-31T02:38:44;47.33;;;28.30;;
20245;SDS011;10281;54.406;18.556;2022-10-31T02:41:20;45.30;;;27.23;;
20245;SDS011;10281;54.406;18.556;2022-10-31T02:43:56;50.50;;;28.50;;
20245;SDS011;10281;54.406;18.556;2022-10-31T02:46:25;51.03;;;28.83;;
20245;SDS011;10281;54.406;18.556;2022-10-31T02:48:57;45.60;;;28.50;;
20245;SDS011;10281;54.406;18.556;2022-10-31T02:51:27;44.57;;;28.13;;
20245;SDS011;10281;54.406;18.556;2022-10-31T02:53:54;47.87;;;28.10;;
20245;SDS011;10281;54.406;18.556;2022-10-31T02:56:21;48.10;;;27.93;;
20245;SDS011;10281;54.406;18.556;2022-10-31T02:58:50;44.70;;;27.23;;
20245;SDS011;10281;54.406;18.556;2022-10-31T03:06:54;51.13;;;30.00;;
20245;SDS011;10281;54.406;18.556;2022-10-31T03:09:24;56.73;;;29.57;;
20245;SDS011;10281;54.406;18.556;2022-10-31T03:12:01;52.73;;;27.80;;
20245;SDS011;10281;54.406;18.556;2022-10-31T03:14:41;54.50;;;29.07;;
20245;SDS011;10281;54.406;18.556;2022-10-31T03:17:13;53.00;;;28.23;;
20245;SDS011;10281;54.406;18.556;2022-10-31T03:19:43;50.60;;;30.10;;
20245;SDS011;10281;54.406;18.556;2022-10-31T03:22:17;58.83;;;28.33;;
20245;SDS011;10281;54.406;18.556;2022-10-31T03:24:48;63.97;;;30.07;;
20245;SDS011;10281;54.406;18.556;2022-10-31T03:27:16;58.07;;;30.00;;
20245;SDS011;10281;54.406;18.556;2022-10-31T03:29:45;60.80;;;29.90;;
20245;SDS011;10281;54.406;18.556;2022-10-31T03:32:18;61.13;;;31.13;;
20245;SDS011;10281;54.406;18.556;2022-10-31T03:34:50;66.03;;;29.73;;
20245;SDS011;10281;54.406;18.556;2022-10-31T03:37:20;56.40;;;26.90;;
20245;SDS011;10281;54.406;18.556;2022-10-31T03:39:50;61.73;;;28.73;;
20245;SDS011;10281;54.406;18.556;2022-10-31T03:42:18;71.10;;;28.90;;
20245;SDS011;10281;54.406;18.556;2022-10-31T03:44:52;68.60;;;29.10;;
20245;SDS011;10281;54.406;18.556;2022-10-31T03:47:24;61.73;;;27.23;;
20245;SDS011;10281;54.406;18.556;2022-10-31T03:49:51;65.53;;;27.13;;
20245;SDS011;10281;54.406;18.556;2022-10-31T03:52:24;71.03;;;28.80;;
20245;SDS011;10281;54.406;18.556;2022-10-31T03:54:53;67.93;;;29.70;;
20245;SDS011;10281;54.406;18.556;2022-10-31T03:57:27;80.40;;;29.60;;
20245;SDS011;10281;54.406;18.556;2022-10-31T04:00:01;72.97;;;29.63;;
20245;SDS011;10281;54.406;18.556;2022-10-31T04:02:32;59.00;;;27.20;;
20245;SDS011;10281;54.406;18.556;2022-10-31T04:05:01;63.93;;;29.37;;
20245;SDS011;10281;54.406;18.556;2022-10-31T04:07:30;69.53;;;29.40;;
20245;SDS011;10281;54.406;18.556;2022-10-31T04:09:59;70.53;;;28.50;;
20245;SDS011;10281;54.406;18.556;2022-10-31T04:12:27;79.13;;;29.23;;
20245;SDS011;10281;54.406;18.556;2022-10-31T04:14:57;66.37;;;27.83;;
20245;SDS011;10281;54.406;18.556;2022-10-31T04:17:25;69.50;;;28.47;;
20245;SDS011;10281;54.406;18.556;2022-10-31T04:19:55;64.73;;;28.73;;
20245;SDS011;10281;54.406;18.556;2022-10-31T04:22:26;76.33;;;29.40;;
20245;SDS011;10281;54.406;18.556;2022-10-31T04:24:52;76.53;;;31.33;;
20245;SDS011;10281;54.406;18.556;2022-10-31T04:27:19;72.33;;;31.20;;
20245;SDS011;10281;54.406;18.556;2022-10-31T04:29:46;74.53;;;32.93;;
20245;SDS011;10281;54.406;18.556;2022-10-31T04:32:13;81.10;;;35.17;;
20245;SDS011;10281;54.406;18.556;2022-10-31T04:34:40;80.63;;;32.33;;
20245;SDS011;10281;54.406;18.556;2022-10-31T04:37:06;74.37;;;32.93;;
20245;SDS011;10281;54.406;18.556;2022-10-31T04:39:33;97.13;;;37.30;;
20245;SDS011;10281;54.406;18.556;2022-10-31T04:41:59;85.53;;;33.30;;
20245;SDS011;10281;54.406;18.556;2022-10-31T04:44:26;68.67;;;32.13;;
20245;SDS011;10281;54.406;18.556;2022-10-31T04:46:53;82.70;;;32.83;;
20245;SDS011;10281;54.406;18.556;2022-10-31T04:49:19;72.30;;;31.17;;
20245;SDS011;10281;54.406;18.556;2022-10-31T04:51:46;72.07;;;31.73;;
20245;SDS011;10281;54.406;18.556;2022-10-31T04:54:13;73.00;;;30.87;;
20245;SDS011;10281;54.406;18.556;2022-10-31T04:56:39;64.40;;;30.20;;
20245;SDS011;10281;54.406;18.556;2022-10-31T04:59:07;58.73;;;27.40;;
20245;SDS011;10281;54.406;18.556;2022-10-31T05:01:33;60.17;;;28.83;;
20245;SDS011;10281;54.406;18.556;2022-10-31T05:04:00;57.57;;;26.90;;
20245;SDS011;10281;54.406;18.556;2022-10-31T05:06:27;55.70;;;26.27;;
20245;SDS011;10281;54.406;18.556;2022-10-31T05:08:53;54.90;;;27.07;;
20245;SDS011;10281;54.406;18.556;2022-10-31T05:11:20;47.90;;;24.73;;
20245;SDS011;10281;54.406;18.556;2022-10-31T05:13:47;49.13;;;26.33;;
20245;SDS011;10281;54.406;18.556;2022-10-31T05:16:13;47.63;;;23.07;;
20245;SDS011;10281;54.406;18.556;2022-10-31T05:18:40;39.73;;;22.80;;
20245;SDS011;10281;54.406;18.556;2022-10-31T05:21:07;45.53;;;24.23;;
20245;SDS011;10281;54.406;18.556;2022-10-31T05:23:34;38.60;;;23.00;;
20245;SDS011;10281;54.406;18.556;2022-10-31T05:26:00;44.00;;;23.80;;
20245;SDS011;10281;54.406;18.556;2022-10-31T05:28:27;39.53;;;23.87;;
20245;SDS011;10281;54.406;18.556;2022-10-31T05:30:54;43.17;;;24.17;;
20245;SDS011;10281;54.406;18.556;2022-10-31T05:33:20;46.97;;;24.63;;
20245;SDS011;10281;54.406;18.556;2022-10-31T05:35:47;45.23;;;23.63;;
20245;SDS011;10281;54.406;18.556;2022-10-31T05:38:14;45.20;;;23.13;;
20245;SDS011;10281;54.406;18.556;2022-10-31T05:40:41;44.37;;;23.43;;
20245;SDS011;10281;54.406;18.556;2022-10-31T05:43:07;38.53;;;21.83;;
20245;SDS011;10281;54.406;18.556;2022-10-31T05:45:34;40.43;;;22.27;;
20245;SDS011;10281;54.406;18.556;2022-10-31T05:48:00;34.93;;;21.73;;
20245;SDS011;10281;54.406;18.556;2022-10-31T05:50:28;38.90;;;22.17;;
20245;SDS011;10281;54.406;18.556;2022-10-31T05:52:57;36.80;;;21.70;;
20245;SDS011;10281;54.406;18.556;2022-10-31T05:55:26;37.73;;;21.20;;
20245;SDS011;10281;54.406;18.556;2022-10-31T05:57:53;36.77;;;22.03;;
20245;SDS011;10281;54.406;18.556;2022-10-31T06:00:21;36.03;;;21.17;;
20245;SDS011;10281;54.406;18.556;2022-10-31T06:02:48;38.17;;;21.43;;
20245;SDS011;10281;54.406;18.556;2022-10-31T06:05:17;38.47;;;20.30;;
20245;SDS011;10281;54.406;18.556;2022-10-31T06:07:44;38.53;;;21.07;;
20245;SDS011;10281;54.406;18.556;2022-10-31T06:10:10;35.97;;;20.13;;
20245;SDS011;10281;54.406;18.556;2022-10-31T06:12:37;34.90;;;20.20;;
20245;SDS011;10281;54.406;18.556;2022-10-31T06:15:06;32.00;;;20.13;;
20245;SDS011;10281;54.406;18.556;2022-10-31T06:17:34;36.10;;;20.57;;
20245;SDS011;10281;54.406;18.556;2022-10-31T06:20:01;36.33;;;20.90;;
20245;SDS011;10281;54.406;18.556;2022-10-31T06:22:28;38.37;;;20.87;;
20245;SDS011;10281;54.406;18.556;2022-10-31T06:24:55;39.47;;;21.77;;
20245;SDS011;10281;54.406;18.556;2022-10-31T06:27:21;34.60;;;20.33;;
20245;SDS011;10281;54.406;18.556;2022-10-31T06:29:48;32.57;;;20.37;;
20245;SDS011;10281;54.406;18.556;2022-10-31T06:32:15;38.10;;;20.47;;
20245;SDS011;10281;54.406;18.556;2022-10-31T06:34:43;33.40;;;20.93;;
20245;SDS011;10281;54.406;18.556;2022-10-31T06:37:10;31.97;;;19.93;;
20245;SDS011;10281;54.406;18.556;2022-10-31T06:39:37;38.03;;;20.77;;
20245;SDS011;10281;54.406;18.556;2022-10-31T06:42:04;32.87;;;19.73;;
20245;SDS011;10281;54.406;18.556;2022-10-31T06:44:31;31.97;;;20.90;;
20245;SDS011;10281;54.406;18.556;2022-10-31T06:46:58;33.27;;;19.50;;
20245;SDS011;10281;54.406;18.556;2022-10-31T06:49:25;36.03;;;19.97;;
20245;SDS011;10281;54.406;18.556;2022-10-31T06:51:52;36.00;;;20.47;;
20245;SDS011;10281;54.406;18.556;2022-10-31T06:54:18;38.70;;;21.20;;
20245;SDS011;10281;54.406;18.556;2022-10-31T06:56:45;33.87;;;19.77;;
20245;SDS011;10281;54.406;18.556;2022-10-31T06:59:13;34.40;;;20.23;;
20245;SDS011;10281;54.406;18.556;2022-10-31T07:01:40;32.73;;;19.83;;
20245;SDS011;10281;54.406;18.556;2022-10-31T07:04:09;37.20;;;20.00;;
20245;SDS011;10281;54.406;18.556;2022-10-31T07:06:36;40.43;;;21.10;;
20245;SDS011;10281;54.406;18.556;2022-10-31T07:09:03;32.93;;;19.73;;
20245;SDS011;10281;54.406;18.556;2022-10-31T07:11:30;34.93;;;20.37;;
20245;SDS011;10281;54.406;18.556;2022-10-31T07:13:56;31.20;;;18.83;;
20245;SDS011;10281;54.406;18.556;2022-10-31T07:16:23;32.17;;;18.43;;
20245;SDS011;10281;54.406;18.556;2022-10-31T07:18:49;34.13;;;19.10;;
20245;SDS011;10281;54.406;18.556;2022-10-31T07:21:16;31.50;;;19.07;;
20245;SDS011;10281;54.406;18.556;2022-10-31T07:23:43;29.87;;;18.53;;
20245;SDS011;10281;54.406;18.556;2022-10-31T07:26:09;29.17;;;18.50;;
20245;SDS011;10281;54.406;18.556;2022-10-31T07:28:36;29.97;;;19.17;;
20245;SDS011;10281;54.406;18.556;2022-10-31T07:31:03;28.70;;;19.33;;
20245;SDS011;10281;54.406;18.556;2022-10-31T07:33:29;33.50;;;18.97;;
20245;SDS011;10281;54.406;18.556;2022-10-31T07:35:56;30.47;;;19.30;;
20245;SDS011;10281;54.406;18.556;2022-10-31T07:38:22;30.87;;;18.53;;
20245;SDS011;10281;54.406;18.556;2022-10-31T07:40:50;29.13;;;18.80;;
20245;SDS011;10281;54.406;18.556;2022-10-31T07:43:18;30.40;;;19.03;;
20245;SDS011;10281;54.406;18.556;2022-10-31T07:45:52;29.27;;;18.83;;
20245;SDS011;10281;54.406;18.556;2022-10-31T07:48:20;28.33;;;17.70;;
20245;SDS011;10281;54.406;18.556;2022-10-31T07:50:47;31.33;;;19.87;;
20245;SDS011;10281;54.406;18.556;2022-10-31T07:53:14;27.87;;;18.00;;
20245;SDS011;10281;54.406;18.556;2022-10-31T07:55:41;29.50;;;18.57;;
20245;SDS011;10281;54.406;18.556;2022-10-31T07:58:12;26.50;;;17.97;;
20245;SDS011;10281;54.406;18.556;2022-10-31T08:00:41;29.00;;;19.53;;
20245;SDS011;10281;54.406;18.556;2022-10-31T08:03:10;28.20;;;17.93;;
20245;SDS011;10281;54.406;18.556;2022-10-31T08:05:38;28.50;;;18.87;;
20245;SDS011;10281;54.406;18.556;2022-10-31T08:08:06;27.53;;;18.73;;
20245;SDS011;10281;54.406;18.556;2022-10-31T08:10:34;32.63;;;19.53;;
20245;SDS011;10281;54.406;18.556;2022-10-31T08:13:02;29.50;;;19.40;;
20245;SDS011;10281;54.406;18.556;2022-10-31T08:15:31;31.07;;;20.90;;
20245;SDS011;10281;54.406;18.556;2022-10-31T08:18:00;31.40;;;21.97;;
20245;SDS011;10281;54.406;18.556;2022-10-31T08:20:27;29.03;;;19.60;;
20245;SDS011;10281;54.406;18.556;2022-10-31T08:22:55;30.13;;;20.20;;
20245;SDS011;10281;54.406;18.556;2022-10-31T08:25:26;30.60;;;21.50;;
20245;SDS011;10281;54.406;18.556;2022-10-31T08:27:54;36.33;;;22.60;;
20245;SDS011;10281;54.406;18.556;2022-10-31T08:30:22;34.63;;;23.10;;
20245;SDS011;10281;54.406;18.556;2022-10-31T08:33:00;32.40;;;21.60;;
20245;SDS011;10281;54.406;18.556;2022-10-31T08:35:42;39.63;;;23.10;;
20245;SDS011;10281;54.406;18.556;2022-10-31T08:38:10;32.60;;;23.07;;
20245;SDS011;10281;54.406;18.556;2022-10-31T08:40:38;37.80;;;23.60;;
20245;SDS011;10281;54.406;18.556;2022-10-31T08:43:08;32.23;;;21.83;;
20245;SDS011;10281;54.406;18.556;2022-10-31T08:45:38;33.37;;;23.70;;
20245;SDS011;10281;54.406;18.556;2022-10-31T08:48:09;31.13;;;21.97;;
20245;SDS011;10281;54.406;18.556;2022-10-31T08:50:38;31.60;;;22.20;;
20245;SDS011;10281;54.406;18.556;2022-10-31T08:53:09;33.73;;;21.40;;
20245;SDS011;10281;54.406;18.556;2022-10-31T08:55:38;27.83;;;20.00;;
20245;SDS011;10281;54.406;18.556;2022-10-31T08:58:08;33.10;;;21.20;;
20245;SDS011;10281;54.406;18.556;2022-10-31T09:00:37;29.70;;;20.37;;
20245;SDS011;10281;54.406;18.556;2022-10-31T09:03:06;28.23;;;20.20;;
20245;SDS011;10281;54.406;18.556;2022-10-31T09:05:34;29.40;;;20.10;;
20245;SDS011;10281;54.406;18.556;2022-10-31T09:08:01;29.17;;;20.57;;
20245;SDS011;10281;54.406;18.556;2022-10-31T09:10:29;31.27;;;20.37;;
20245;SDS011;10281;54.406;18.556;2022-10-31T09:12:58;27.17;;;20.40;;
20245;SDS011;10281;54.406;18.556;2022-10-31T09:15:27;31.67;;;21.13;;
20245;SDS011;10281;54.406;18.556;2022-10-31T09:17:54;33.30;;;19.80;;
20245;SDS011;10281;54.406;18.556;2022-10-31T09:20:22;27.67;;;19.47;;
20245;SDS011;10281;54.406;18.556;2022-10-31T09:22:54;29.23;;;19.93;;
20245;SDS011;10281;54.406;18.556;2022-10-31T09:25:23;29.03;;;20.17;;
20245;SDS011;10281;54.406;18.556;2022-10-31T09:27:50;31.87;;;21.17;;
20245;SDS011;10281;54.406;18.556;2022-10-31T09:30:17;31.53;;;20.37;;
20245;SDS011;10281;54.406;18.556;2022-10-31T09:32:43;29.27;;;20.17;;
20245;SDS011;10281;54.406;18.556;2022-10-31T09:35:10;28.43;;;19.17;;
20245;SDS011;10281;54.406;18.556;2022-10-31T09:37:37;29.60;;;20.63;;
20245;SDS011;10281;54.406;18.556;2022-10-31T09:40:03;34.50;;;21.47;;
20245;SDS011;10281;54.406;18.556;2022-10-31T09:42:41;30.40;;;20.93;;
20245;SDS011;10281;54.406;18.556;2022-10-31T09:45:31;36.13;;;22.60;;
20245;SDS011;10281;54.406;18.556;2022-10-31T09:48:09;33.07;;;22.73;;
20245;SDS011;10281;54.406;18.556;2022-10-31T09:50:56;35.77;;;22.67;;
20245;SDS011;10281;54.406;18.556;2022-10-31T09:53:32;32.43;;;22.07;;
20245;SDS011;10281;54.406;18.556;2022-10-31T09:56:17;35.87;;;22.63;;
20245;SDS011;10281;54.406;18.556;2022-10-31T09:58:47;33.63;;;22.87;;
20245;SDS011;10281;54.406;18.556;2022-10-31T10:01:54;34.10;;;22.67;;
20245;SDS011;10281;54.406;18.556;2022-10-31T10:10:16;36.33;;;24.00;;
20245;SDS011;10281;54.406;18.556;2022-10-31T10:13:05;37.87;;;23.83;;
20245;SDS011;10281;54.406;18.556;2022-10-31T10:15:46;36.13;;;23.57;;
20245;SDS011;10281;54.406;18.556;2022-10-31T10:18:31;43.03;;;25.73;;
20245;SDS011;10281;54.406;18.556;2022-10-31T10:21:01;38.77;;;24.63;;
20245;SDS011;10281;54.406;18.556;2022-10-31T10:23:48;37.53;;;25.10;;
20245;SDS011;10281;54.406;18.556;2022-10-31T10:26:19;41.73;;;24.93;;
20245;SDS011;10281;54.406;18.556;2022-10-31T10:28:54;38.70;;;25.87;;
20245;SDS011;10281;54.406;18.556;2022-10-31T10:31:25;43.47;;;26.70;;
20245;SDS011;10281;54.406;18.556;2022-10-31T10:34:07;41.93;;;26.73;;
20245;SDS011;10281;54.406;18.556;2022-10-31T10:36:37;39.23;;;25.50;;
20245;SDS011;10281;54.406;18.556;2022-10-31T10:39:18;40.83;;;26.43;;
20245;SDS011;10281;54.406;18.556;2022-10-31T10:41:49;43.63;;;26.90;;
20245;SDS011;10281;54.406;18.556;2022-10-31T10:44:22;46.17;;;28.03;;
20245;SDS011;10281;54.406;18.556;2022-10-31T10:47:06;48.83;;;27.93;;
20245;SDS011;10281;54.406;18.556;2022-10-31T10:49:41;50.37;;;28.73;;
20245;SDS011;10281;54.406;18.556;2022-10-31T10:55:56;43.90;;;27.57;;
20245;SDS011;10281;54.406;18.556;2022-10-31T11:00:27;37.27;;;25.37;;
20245;SDS011;10281;54.406;18.556;2022-10-31T11:03:03;36.03;;;25.87;;
20245;SDS011;10281;54.406;18.556;2022-10-31T11:08:05;35.33;;;24.83;;
20245;SDS011;10281;54.406;18.556;2022-10-31T11:10:33;34.13;;;23.67;;
20245;SDS011;10281;54.406;18.556;2022-10-31T11:13:14;34.63;;;23.00;;
20245;SDS011;10281;54.406;18.556;2022-10-31T11:15:55;32.70;;;23.53;;
20245;SDS011;10281;54.406;18.556;2022-10-31T11:18:25;32.40;;;22.90;;
20245;SDS011;10281;54.406;18.556;2022-10-31T11:20:54;32.60;;;23.17;;
20245;SDS011;10281;54.406;18.556;2022-10-31T11:23:23;34.97;;;24.50;;
20245;SDS011;10281;54.406;18.556;2022-10-31T11:25:52;35.57;;;24.23;;
20245;SDS011;10281;54.406;18.556;2022-10-31T11:28:24;36.10;;;23.90;;
20245;SDS011;10281;54.406;18.556;2022-10-31T11:30:52;36.83;;;23.33;;
20245;SDS011;10281;54.406;18.556;2022-10-31T11:33:24;33.90;;;23.23;;
20245;SDS011;10281;54.406;18.556;2022-10-31T11:35:56;31.20;;;21.90;;
20245;SDS011;10281;54.406;18.556;2022-10-31T11:38:24;34.13;;;23.80;;
20245;SDS011;10281;54.406;18.556;2022-10-31T11:40:56;36.43;;;23.73;;
20245;SDS011;10281;54.406;18.556;2022-10-31T11:43:26;40.00;;;25.10;;
20245;SDS011;10281;54.406;18.556;2022-10-31T11:45:53;33.10;;;24.17;;
20245;SDS011;10281;54.406;18.556;2022-10-31T11:48:21;36.20;;;24.40;;
20245;SDS011;10281;54.406;18.556;2022-10-31T11:50:52;32.27;;;22.87;;
20245;SDS011;10281;54.406;18.556;2022-10-31T11:53:26;29.13;;;22.10;;
20245;SDS011;10281;54.406;18.556;2022-10-31T11:56:15;29.53;;;21.97;;
20245;SDS011;10281;54.406;18.556;2022-10-31T11:58:42;27.20;;;21.87;;
20245;SDS011;10281;54.406;18.556;2022-10-31T12:03:51;26.73;;;21.50;;
20245;SDS011;10281;54.406;18.556;2022-10-31T12:06:31;28.57;;;21.07;;
20245;SDS011;10281;54.406;18.556;2022-10-31T12:09:00;28.17;;;20.63;;
20245;SDS011;10281;54.406;18.556;2022-10-31T12:11:31;26.93;;;21.23;;
20245;SDS011;10281;54.406;18.556;2022-10-31T12:14:18;27.97;;;20.97;;
20245;SDS011;10281;54.406;18.556;2022-10-31T12:17:02;28.00;;;20.13;;
20245;SDS011;10281;54.406;18.556;2022-10-31T12:19:39;27.77;;;20.83;;
20245;SDS011;10281;54.406;18.556;2022-10-31T12:22:12;26.93;;;20.40;;
20245;SDS011;10281;54.406;18.556;2022-10-31T12:24:47;28.67;;;20.77;;
20245;SDS011;10281;54.406;18.556;2022-10-31T12:27:23;27.30;;;19.73;;
20245;SDS011;10281;54.406;18.556;2022-10-31T12:29:57;29.10;;;20.67;;
20245;SDS011;10281;54.406;18.556;2022-10-31T12:33:03;25.83;;;20.07;;
20245;SDS011;10281;54.406;18.556;2022-10-31T12:38:30;26.33;;;20.47;;
20245;SDS011;10281;54.406;18.556;2022-10-31T12:41:12;28.20;;;20.70;;
20245;SDS011;10281;54.406;18.556;2022-10-31T12:44:02;28.07;;;20.00;;
20245;SDS011;10281;54.406;18.556;2022-10-31T12:46:42;28.10;;;21.57;;
20245;SDS011;10281;54.406;18.556;2022-10-31T12:50:00;25.87;;;20.73;;
20245;SDS011;10281;54.406;18.556;2022-10-31T12:54:59;30.83;;;22.23;;
20245;SDS011;10281;54.406;18.556;2022-10-31T12:57:31;27.07;;;21.77;;
20245;SDS011;10281;54.406;18.556;2022-10-31T13:00:07;28.13;;;21.97;;
20245;SDS011;10281;54.406;18.556;2022-10-31T13:02:53;34.03;;;23.50;;
20245;SDS011;10281;54.406;18.556;2022-10-31T13:08:16;31.77;;;22.33;;
20245;SDS011;10281;54.406;18.556;2022-10-31T13:10:48;31.37;;;23.03;;
20245;SDS011;10281;54.406;18.556;2022-10-31T13:13:36;30.27;;;21.80;;
20245;SDS011;10281;54.406;18.556;2022-10-31T13:18:42;29.63;;;21.67;;
20245;SDS011;10281;54.406;18.556;2022-10-31T13:21:17;29.90;;;22.63;;
20245;SDS011;10281;54.406;18.556;2022-10-31T13:23:50;30.20;;;21.80;;
20245;SDS011;10281;54.406;18.556;2022-10-31T13:26:21;30.10;;;21.37;;
20245;SDS011;10281;54.406;18.556;2022-10-31T13:28:56;31.17;;;21.80;;
20245;SDS011;10281;54.406;18.556;2022-10-31T13:31:25;27.20;;;20.40;;
20245;SDS011;10281;54.406;18.556;2022-10-31T13:33:56;26.20;;;20.40;;
20245;SDS011;10281;54.406;18.556;2022-10-31T13:42:13;26.17;;;19.87;;
20245;SDS011;10281;54.406;18.556;2022-10-31T13:44:44;24.50;;;20.07;;
20245;SDS011;10281;54.406;18.556;2022-10-31T13:52:42;26.80;;;20.17;;
20245;SDS011;10281;54.406;18.556;2022-10-31T13:55:33;29.57;;;20.30;;
20245;SDS011;10281;54.406;18.556;2022-10-31T13:57:43;28.20;;;20.90;;
20245;SDS011;10281;54.406;18.556;2022-10-31T14:00:25;33.10;;;23.90;;
20245;SDS011;10281;54.406;18.556;2022-10-31T14:02:53;44.47;;;30.27;;
20245;SDS011;10281;54.406;18.556;2022-10-31T14:05:23;27.93;;;21.43;;
20245;SDS011;10281;54.406;18.556;2022-10-31T14:07:53;30.10;;;23.73;;
20245;SDS011;10281;54.406;18.556;2022-10-31T14:10:26;28.00;;;20.93;;
20245;SDS011;10281;54.406;18.556;2022-10-31T14:13:03;30.63;;;23.43;;
20245;SDS011;10281;54.406;18.556;2022-10-31T14:15:31;29.43;;;22.77;;
20245;SDS011;10281;54.406;18.556;2022-10-31T14:17:59;32.87;;;24.10;;
20245;SDS011;10281;54.406;18.556;2022-10-31T14:20:32;31.03;;;23.60;;
20245;SDS011;10281;54.406;18.556;2022-10-31T14:25:53;33.50;;;24.73;;
20245;SDS011;10281;54.406;18.556;2022-10-31T14:28:37;27.87;;;21.10;;
20245;SDS011;10281;54.406;18.556;2022-10-31T14:31:21;28.37;;;22.10;;
20245;SDS011;10281;54.406;18.556;2022-10-31T14:33:40;27.83;;;22.40;;
20245;SDS011;10281;54.406;18.556;2022-10-31T14:36:10;26.87;;;21.33;;
20245;SDS011;10281;54.406;18.556;2022-10-31T14:38:54;28.33;;;22.83;;
20245;SDS011;10281;54.406;18.556;2022-10-31T14:41:34;27.93;;;19.97;;
20245;SDS011;10281;54.406;18.556;2022-10-31T14:44:16;27.17;;;20.13;;
20245;SDS011;10281;54.406;18.556;2022-10-31T14:46:50;28.17;;;20.63;;
20245;SDS011;10281;54.406;18.556;2022-10-31T14:49:25;26.53;;;19.27;;
20245;SDS011;10281;54.406;18.556;2022-10-31T14:51:56;27.63;;;20.23;;
20245;SDS011;10281;54.406;18.556;2022-10-31T14:54:27;28.07;;;21.30;;
20245;SDS011;10281;54.406;18.556;2022-10-31T14:56:56;28.70;;;21.13;;
20245;SDS011;10281;54.406;18.556;2022-10-31T14:59:29;24.73;;;19.93;;
20245;SDS011;10281;54.406;18.556;2022-10-31T15:02:00;27.50;;;20.77;;
20245;SDS011;10281;54.406;18.556;2022-10-31T15:04:30;28.97;;;21.47;;
20245;SDS011;10281;54.406;18.556;2022-10-31T15:07:06;30.23;;;22.47;;
20245;SDS011;10281;54.406;18.556;2022-10-31T15:09:36;25.93;;;20.60;;
20245;SDS011;10281;54.406;18.556;2022-10-31T15:15:14;30.37;;;22.63;;
20245;SDS011;10281;54.406;18.556;2022-10-31T15:17:44;25.30;;;20.00;;
20245;SDS011;10281;54.406;18.556;2022-10-31T15:20:18;30.57;;;21.50;;
20245;SDS011;10281;54.406;18.556;2022-10-31T15:22:47;25.87;;;20.63;;